Time;durP1;ratioP1;P1;durP2;ratioP2;P2;SDS_P1;SDS_P2;PMS_P1;PMS_P2;Temp;Humidity;BMP_temperature;BMP_pressure;BME280_temperature;BME280_humidity;BME280_pressure;Samples;Min_cycle;Max_cycle;Signal;HPM_P1;HPM_P2
2021/07/28 00:01:21;;;;;;;23.00;18.15;;;17.00;99.90;;;;;;5104805;28;20044;-88
2021/07/28 00:03:49;;;;;;;24.90;18.35;;;17.00;99.90;;;;;;5130831;28;20032;-88
2021/07/28 00:06:23;;;;;;;23.02;18.15;;;17.00;99.90;;;;;;5130655;28;20060;-88
2021/07/28 00:08:50;;;;;;;27.58;19.73;;;17.00;99.90;;;;;;5143168;28;20035;-89
2021/07/28 00:11:18;;;;;;;32.03;20.13;;;17.00;99.90;;;;;;5115280;28;20066;-88
2021/07/28 00:13:46;;;;;;;29.85;19.88;;;17.00;99.90;;;;;;5113884;28;20070;-87
2021/07/28 00:16:16;;;;;;;27.42;19.63;;;17.00;99.90;;;;;;5131535;28;20100;-88
2021/07/28 00:24:05;;;;;;;26.80;19.05;;;16.90;99.90;;;;;;5152156;28;20040;-88
2021/07/28 00:26:32;;;;;;;25.90;19.13;;;16.90;99.90;;;;;;5117532;28;20046;-89
2021/07/28 00:28:58;;;;;;;32.20;19.13;;;16.90;99.90;;;;;;5151350;28;20042;-88
2021/07/28 00:31:25;;;;;;;30.13;19.83;;;16.90;99.90;;;;;;5134407;28;20536;-88
2021/07/28 00:33:52;;;;;;;30.48;18.48;;;16.90;99.90;;;;;;5151365;28;20059;-89
2021/07/28 00:36:19;;;;;;;24.73;18.48;;;16.90;99.90;;;;;;5134079;28;20074;-88
2021/07/28 00:38:46;;;;;;;50.13;19.75;;;16.90;99.90;;;;;;5100884;28;20376;-88
2021/07/28 00:41:13;;;;;;;25.70;17.02;;;16.80;99.90;;;;;;5134298;28;20047;-88
2021/07/28 00:43:41;;;;;;;26.88;16.52;;;16.80;99.90;;;;;;5151221;28;20440;-88
2021/07/28 00:46:08;;;;;;;24.67;16.83;;;16.80;99.90;;;;;;5133517;28;20059;-88
2021/07/28 00:48:35;;;;;;;27.50;16.58;;;16.70;99.90;;;;;;5150897;28;20089;-89
2021/07/28 00:51:04;;;;;;;23.75;16.73;;;16.70;99.90;;;;;;5150966;28;20038;-90
2021/07/28 00:53:32;;;;;;;21.42;15.98;;;16.70;99.90;;;;;;5134457;28;20038;-90
2021/07/28 00:56:00;;;;;;;23.88;15.48;;;16.70;99.90;;;;;;5133465;28;20043;-90
2021/07/28 00:58:29;;;;;;;25.25;16.65;;;16.70;99.90;;;;;;5134263;28;20239;-89
2021/07/28 01:00:56;;;;;;;20.52;15.43;;;16.60;99.90;;;;;;5150797;28;20038;-88
2021/07/28 01:03:23;;;;;;;24.75;15.43;;;16.60;99.90;;;;;;5133712;28;20039;-89
2021/07/28 01:05:50;;;;;;;25.60;15.65;;;16.60;99.90;;;;;;5133873;28;20043;-87
2021/07/28 01:08:17;;;;;;;26.45;16.27;;;16.50;99.90;;;;;;5133023;28;20434;-88
2021/07/28 01:10:45;;;;;;;26.25;15.80;;;16.50;99.90;;;;;;5133426;28;20093;-87
2021/07/28 01:13:15;;;;;;;26.45;17.02;;;16.50;99.90;;;;;;5132919;28;20043;-88
2021/07/28 01:15:46;;;;;;;26.15;16.85;;;16.50;99.90;;;;;;5150805;28;20069;-88
2021/07/28 01:18:14;;;;;;;29.05;17.67;;;16.40;99.90;;;;;;5116645;28;20056;-87
2021/07/28 01:20:46;;;;;;;24.95;16.83;;;16.40;99.90;;;;;;5133389;28;20031;-88
2021/07/28 01:23:13;;;;;;;27.63;17.75;;;16.40;99.90;;;;;;5133020;28;20053;-88
2021/07/28 01:25:41;;;;;;;27.73;17.63;;;16.40;99.90;;;;;;5150238;28;20535;-87
2021/07/28 01:28:09;;;;;;;25.50;17.08;;;16.30;99.90;;;;;;5149956;28;20032;-88
2021/07/28 01:30:36;;;;;;;27.05;17.15;;;16.30;99.90;;;;;;5150530;28;20042;-87
2021/07/28 01:33:04;;;;;;;26.48;16.85;;;16.30;99.90;;;;;;5132649;28;20043;-88
2021/07/28 01:35:34;;;;;;;28.73;16.98;;;16.30;99.90;;;;;;5133132;28;20040;-87
2021/07/28 01:38:01;;;;;;;24.98;17.23;;;16.30;99.90;;;;;;5133174;28;20040;-88
2021/07/28 01:40:28;;;;;;;28.45;17.30;;;16.30;99.90;;;;;;5132625;28;20464;-87
2021/07/28 01:42:55;;;;;;;27.70;16.75;;;16.20;99.90;;;;;;5150780;28;20060;-86
2021/07/28 01:45:21;;;;;;;27.25;17.85;;;16.20;99.90;;;;;;5148929;28;20472;-87
2021/07/28 01:47:48;;;;;;;23.90;17.13;;;16.20;99.90;;;;;;5115693;28;20043;-87
2021/07/28 01:50:15;;;;;;;25.70;16.40;;;16.10;99.90;;;;;;5132546;28;20038;-88
2021/07/28 01:52:42;;;;;;;29.90;16.73;;;16.10;99.90;;;;;;5133175;28;20152;-87
2021/07/28 01:55:10;;;;;;;26.95;16.60;;;16.10;99.90;;;;;;5115325;28;20035;-88
2021/07/28 01:57:36;;;;;;;24.48;16.48;;;16.10;99.90;;;;;;5132810;28;20411;-87
2021/07/28 02:00:04;;;;;;;25.25;16.35;;;16.10;99.90;;;;;;5132392;28;20138;-87
2021/07/28 02:02:32;;;;;;;26.88;17.05;;;16.00;99.90;;;;;;5132408;28;20036;-87
2021/07/28 02:04:59;;;;;;;25.63;17.38;;;16.00;99.90;;;;;;5132486;28;20035;-87
2021/07/28 02:07:26;;;;;;;25.98;16.70;;;16.00;99.90;;;;;;5149063;28;20031;-87
2021/07/28 02:09:53;;;;;;;28.23;15.60;;;16.00;99.90;;;;;;5132871;28;20042;-87
2021/07/28 02:12:21;;;;;;;26.77;17.30;;;16.00;99.90;;;;;;5148997;28;20463;-89
2021/07/28 02:14:48;;;;;;;35.25;18.02;;;16.00;99.90;;;;;;5132608;28;20035;-88
2021/07/28 02:17:15;;;;;;;28.80;17.27;;;16.00;99.90;;;;;;5148716;28;20031;-87
2021/07/28 02:19:42;;;;;;;24.98;17.48;;;15.90;99.90;;;;;;5148822;28;20039;-87
2021/07/28 02:22:09;;;;;;;27.42;17.95;;;15.90;99.90;;;;;;5148227;28;20088;-88
2021/07/28 02:24:37;;;;;;;29.85;17.80;;;15.90;99.90;;;;;;5132870;28;20114;-87
2021/07/28 02:27:04;;;;;;;26.52;17.45;;;15.80;99.90;;;;;;5132785;28;20035;-87
2021/07/28 02:29:31;;;;;;;30.00;18.48;;;15.80;99.90;;;;;;5148768;28;20057;-87
2021/07/28 02:31:58;;;;;;;23.73;16.77;;;15.80;99.90;;;;;;5131962;28;20066;-87
2021/07/28 02:34:25;;;;;;;27.75;17.38;;;15.80;99.90;;;;;;5131520;28;20043;-86
2021/07/28 02:36:52;;;;;;;29.05;17.33;;;15.80;99.90;;;;;;5148398;28;20040;-87
2021/07/28 02:39:19;;;;;;;26.75;16.88;;;15.80;99.90;;;;;;5131311;28;20036;-87
2021/07/28 02:41:45;;;;;;;33.28;18.17;;;15.80;99.90;;;;;;5114815;28;20043;-87
2021/07/28 02:44:12;;;;;;;28.98;16.63;;;15.80;99.90;;;;;;5148212;28;20536;-89
2021/07/28 02:46:39;;;;;;;30.27;17.40;;;15.80;99.90;;;;;;5131333;28;20112;-88
2021/07/28 02:49:06;;;;;;;28.95;17.02;;;15.80;99.90;;;;;;5148882;28;20498;-87
2021/07/28 02:51:33;;;;;;;33.28;17.42;;;15.80;99.90;;;;;;5130995;28;20168;-87
2021/07/28 02:54:00;;;;;;;32.03;17.08;;;15.80;99.90;;;;;;5131004;28;20039;-88
2021/07/28 02:56:27;;;;;;;24.70;16.45;;;15.70;99.90;;;;;;5147488;28;20475;-87
2021/07/28 02:58:54;;;;;;;30.70;17.95;;;15.70;99.90;;;;;;5131189;28;20038;-87
2021/07/28 03:01:20;;;;;;;25.90;16.33;;;15.70;99.90;;;;;;5130682;28;20116;-87
2021/07/28 03:03:47;;;;;;;25.90;16.92;;;15.70;99.90;;;;;;5114330;28;20438;-86
2021/07/28 03:06:14;;;;;;;26.30;16.35;;;15.70;99.90;;;;;;5147340;28;20372;-87
2021/07/28 03:08:41;;;;;;;27.35;17.08;;;15.70;99.90;;;;;;5130794;28;20036;-87
2021/07/28 03:11:08;;;;;;;30.83;18.00;;;15.60;99.90;;;;;;5114233;28;20059;-86
2021/07/28 03:13:35;;;;;;;23.80;16.67;;;15.60;99.90;;;;;;5124850;28;20031;-87
2021/07/28 03:16:11;;;;;;;24.80;16.25;;;15.60;99.90;;;;;;5138741;28;20038;-87
2021/07/28 03:18:38;;;;;;;24.98;16.33;;;15.60;99.90;;;;;;5110549;28;20138;-87
2021/07/28 03:21:05;;;;;;;23.67;15.95;;;15.60;99.90;;;;;;5110660;28;20520;-86
2021/07/28 03:23:32;;;;;;;23.92;16.00;;;15.60;99.90;;;;;;5117929;28;20513;-87
2021/07/28 03:25:59;;;;;;;25.00;15.50;;;15.60;99.90;;;;;;5142338;28;20044;-87
2021/07/28 03:28:26;;;;;;;24.50;15.60;;;15.60;99.90;;;;;;5126355;28;20051;-88
2021/07/28 03:30:53;;;;;;;22.33;15.57;;;15.60;99.90;;;;;;5148010;28;20528;-86
2021/07/28 03:33:20;;;;;;;26.48;16.27;;;15.60;99.90;;;;;;5148576;28;20052;-87
2021/07/28 03:35:47;;;;;;;25.98;15.65;;;15.60;99.90;;;;;;5151558;28;20433;-86
2021/07/28 03:38:14;;;;;;;28.85;16.48;;;15.60;99.90;;;;;;5135034;28;20046;-86
2021/07/28 03:40:41;;;;;;;26.38;16.33;;;15.60;99.90;;;;;;5150816;28;20042;-87
2021/07/28 03:43:09;;;;;;;25.00;16.08;;;15.50;99.90;;;;;;5134672;28;20369;-86
2021/07/28 03:45:36;;;;;;;26.08;16.45;;;15.60;99.90;;;;;;5133799;28;20035;-87
2021/07/28 03:48:03;;;;;;;24.77;15.02;;;15.50;99.90;;;;;;5117211;28;20043;-87
2021/07/28 03:50:30;;;;;;;23.33;15.50;;;15.50;99.90;;;;;;5117805;28;20035;-87
2021/07/28 03:52:59;;;;;;;28.33;17.08;;;15.50;99.90;;;;;;5134627;28;20544;-86
2021/07/28 03:55:26;;;;;;;28.73;15.98;;;15.50;99.90;;;;;;5134168;28;20058;-87
2021/07/28 03:57:53;;;;;;;27.50;16.30;;;15.50;99.90;;;;;;5117467;28;20040;-87
2021/07/28 04:00:20;;;;;;;24.70;15.70;;;15.50;99.90;;;;;;5117385;28;20043;-87
2021/07/28 04:02:48;;;;;;;21.60;15.00;;;15.50;99.90;;;;;;5117637;28;20043;-87
2021/07/28 04:05:16;;;;;;;29.92;16.00;;;15.50;99.90;;;;;;5134940;28;20463;-87
2021/07/28 04:07:43;;;;;;;23.50;14.68;;;15.50;99.90;;;;;;5150946;28;20047;-87
2021/07/28 04:10:10;;;;;;;23.45;15.23;;;15.50;99.90;;;;;;5134512;28;20042;-88
2021/07/28 04:12:37;;;;;;;24.02;14.63;;;15.40;99.90;;;;;;5117156;28;20604;-87
2021/07/28 04:15:04;;;;;;;26.50;15.30;;;15.50;99.90;;;;;;5150990;28;20407;-87
2021/07/28 04:17:31;;;;;;;25.60;15.40;;;15.40;99.90;;;;;;5133553;28;20476;-86
2021/07/28 04:20:02;;;;;;;23.50;15.25;;;15.40;99.90;;;;;;5134519;28;20399;-87
2021/07/28 04:22:29;;;;;;;26.63;15.73;;;15.40;99.90;;;;;;5116906;28;20043;-88
2021/07/28 04:24:56;;;;;;;23.52;15.77;;;15.50;99.90;;;;;;5151215;28;20039;-87
2021/07/28 04:27:29;;;;;;;27.52;15.20;;;15.40;99.90;;;;;;5150480;28;20062;-88
2021/07/28 04:29:56;;;;;;;24.85;15.68;;;15.40;99.90;;;;;;5151596;28;20498;-87
2021/07/28 04:32:23;;;;;;;28.20;15.13;;;15.40;99.90;;;;;;5150552;28;20092;-88
2021/07/28 04:34:50;;;;;;;26.15;15.15;;;15.40;99.90;;;;;;5150894;28;20039;-87
2021/07/28 04:37:19;;;;;;;24.05;15.80;;;15.40;99.90;;;;;;5133689;28;20047;-86
2021/07/28 04:39:46;;;;;;;21.90;14.15;;;15.50;99.90;;;;;;5117059;28;20040;-87
2021/07/28 04:42:13;;;;;;;24.02;14.90;;;15.50;99.90;;;;;;5152180;28;20031;-87
2021/07/28 04:44:40;;;;;;;25.65;15.52;;;15.50;99.90;;;;;;5133555;28;20524;-88
2021/07/28 04:47:07;;;;;;;22.73;14.75;;;15.50;99.90;;;;;;5133402;28;20142;-87
2021/07/28 04:49:33;;;;;;;29.05;15.00;;;15.50;99.90;;;;;;5115960;28;20036;-87
2021/07/28 04:52:00;;;;;;;23.23;14.10;;;15.60;99.90;;;;;;5099053;28;20137;-86
2021/07/28 04:54:27;;;;;;;24.20;13.95;;;15.50;99.90;;;;;;5131845;28;20035;-86
2021/07/28 04:56:54;;;;;;;22.15;13.75;;;15.60;99.90;;;;;;5115324;28;20043;-87
2021/07/28 04:59:20;;;;;;;25.13;14.52;;;15.60;99.90;;;;;;5149019;28;20111;-87
2021/07/28 05:01:47;;;;;;;25.83;14.40;;;15.60;99.90;;;;;;5114683;28;20043;-87
2021/07/28 05:04:14;;;;;;;23.00;14.10;;;15.60;99.90;;;;;;5115354;28;20031;-88
2021/07/28 05:06:41;;;;;;;21.73;13.70;;;15.60;99.90;;;;;;5115084;28;20101;-87
2021/07/28 05:09:09;;;;;;;23.20;14.48;;;15.60;99.90;;;;;;5132228;28;20403;-87
2021/07/28 05:11:35;;;;;;;21.70;14.85;;;15.60;99.90;;;;;;5115243;28;20093;-87
2021/07/28 05:14:02;;;;;;;23.90;14.45;;;15.70;99.90;;;;;;5115217;28;20035;-87
2021/07/28 05:16:29;;;;;;;24.30;14.23;;;15.70;99.90;;;;;;5114469;28;20114;-86
2021/07/28 05:18:57;;;;;;;24.10;14.82;;;15.80;99.90;;;;;;5131929;28;20032;-87
2021/07/28 05:21:24;;;;;;;26.17;14.20;;;15.80;99.90;;;;;;5115250;28;20449;-88
2021/07/28 05:23:51;;;;;;;22.10;14.23;;;15.80;99.90;;;;;;5132019;28;20466;-88
2021/07/28 05:26:17;;;;;;;23.50;15.38;;;15.90;99.90;;;;;;5115505;28;20031;-87
2021/07/28 05:28:45;;;;;;;25.20;14.38;;;16.00;99.90;;;;;;5131870;28;20063;-87
2021/07/28 05:31:13;;;;;;;24.25;14.55;;;16.10;99.90;;;;;;5115464;28;20511;-87
2021/07/28 05:33:42;;;;;;;21.80;14.00;;;16.20;99.90;;;;;;5115420;28;20038;-92
2021/07/28 05:36:09;;;;;;;25.13;15.15;;;16.20;99.90;;;;;;5149772;28;20039;-88
2021/07/28 05:38:36;;;;;;;23.50;15.10;;;16.30;99.90;;;;;;5148710;28;20084;-88
2021/07/28 05:41:04;;;;;;;30.88;16.23;;;16.40;99.90;;;;;;5132184;28;20392;-88
2021/07/28 05:43:31;;;;;;;26.13;16.38;;;16.40;99.90;;;;;;5131635;28;20054;-88
2021/07/28 05:45:58;;;;;;;27.73;17.13;;;16.50;99.90;;;;;;5105507;28;1156144;-88
2021/07/28 05:48:25;;;;;;;24.50;16.23;;;16.50;99.90;;;;;;5137032;28;20046;-88
2021/07/28 05:50:54;;;;;;;23.20;16.70;;;16.60;99.90;;;;;;5125732;28;20048;-88
2021/07/28 05:53:23;;;;;;;24.17;16.38;;;16.60;99.90;;;;;;5122438;28;20186;-89
2021/07/28 05:55:50;;;;;;;23.55;16.30;;;16.70;99.90;;;;;;5128104;28;20052;-89
2021/07/28 05:58:17;;;;;;;24.23;16.58;;;16.70;99.90;;;;;;5139797;28;20130;-90
2021/07/28 06:00:44;;;;;;;26.77;17.73;;;16.80;99.90;;;;;;5119583;28;20044;-89
2021/07/28 06:03:10;;;;;;;24.92;16.98;;;16.80;99.90;;;;;;5112376;28;20032;-88
2021/07/28 06:05:38;;;;;;;28.27;16.92;;;16.80;99.90;;;;;;5112157;28;20132;-89
2021/07/28 06:08:05;;;;;;;26.88;16.48;;;16.90;99.90;;;;;;5112270;28;20134;-88
2021/07/28 06:10:34;;;;;;;25.13;18.17;;;16.90;99.90;;;;;;5112100;28;20101;-87
2021/07/28 06:13:01;;;;;;;26.17;16.65;;;17.00;99.90;;;;;;5095191;28;20057;-88
2021/07/28 06:15:28;;;;;;;22.48;16.25;;;17.00;99.90;;;;;;5129211;28;20119;-85
2021/07/28 06:17:56;;;;;;;27.38;17.63;;;17.10;99.90;;;;;;5111984;28;20040;-88
2021/07/28 06:20:23;;;;;;;23.67;17.33;;;17.10;99.90;;;;;;5131562;28;20036;-91
2021/07/28 06:22:50;;;;;;;24.73;17.20;;;17.10;99.90;;;;;;5131615;28;20135;-89
2021/07/28 06:25:17;;;;;;;27.73;16.50;;;17.10;99.90;;;;;;5149453;28;20066;-89
2021/07/28 06:27:49;;;;;;;22.50;17.33;;;17.20;99.90;;;;;;5132007;28;20032;-89
2021/07/28 06:30:17;;;;;;;25.67;18.05;;;17.20;99.90;;;;;;5133000;28;20042;-89
2021/07/28 06:32:44;;;;;;;23.48;16.88;;;17.20;99.90;;;;;;5118577;28;20040;-88
2021/07/28 06:35:11;;;;;;;23.67;17.30;;;17.20;99.90;;;;;;5111809;28;20047;-90
2021/07/28 06:37:38;;;;;;;22.08;17.10;;;17.30;99.90;;;;;;5101339;28;20027;-88
2021/07/28 06:40:06;;;;;;;25.30;18.25;;;17.30;99.90;;;;;;5122983;28;20130;-88
2021/07/28 06:42:33;;;;;;;27.30;18.25;;;17.30;99.90;;;;;;5087949;28;20495;-90
2021/07/28 06:45:00;;;;;;;24.38;17.65;;;17.40;99.90;;;;;;5130206;28;20028;-90
2021/07/28 06:47:27;;;;;;;25.63;17.45;;;17.40;99.90;;;;;;5149368;28;20062;-92
2021/07/28 06:49:54;;;;;;;24.60;17.58;;;17.40;99.90;;;;;;5133154;28;20056;-92
2021/07/28 06:52:21;;;;;;;19.75;15.32;;;17.40;99.90;;;;;;5116402;28;20044;-91
2021/07/28 06:54:48;;;;;;;21.52;15.90;;;17.40;99.90;;;;;;5131828;28;20043;-93
2021/07/28 06:57:15;;;;;;;21.77;15.30;;;17.50;99.90;;;;;;5119504;28;20361;-93
2021/07/28 06:59:42;;;;;;;18.65;14.20;;;17.50;99.90;;;;;;5133043;28;20092;-91
2021/07/28 07:02:09;;;;;;;20.25;14.07;;;17.50;99.90;;;;;;5133337;28;20540;-95
2021/07/28 07:04:36;;;;;;;26.20;16.25;;;17.60;99.90;;;;;;5137352;28;20046;-90
2021/07/28 07:07:03;;;;;;;19.83;14.32;;;17.70;99.90;;;;;;5150852;28;20118;-93
2021/07/28 07:09:30;;;;;;;19.70;14.30;;;17.80;99.90;;;;;;5116198;28;20480;-92
2021/07/28 07:11:57;;;;;;;19.38;14.60;;;17.80;99.90;;;;;;5133585;28;20075;-95
2021/07/28 07:14:23;;;;;;;21.42;15.13;;;17.80;99.90;;;;;;5115864;28;20100;-96
2021/07/28 07:16:50;;;;;;;20.52;15.27;;;17.80;99.90;;;;;;5115664;28;20456;-96
2021/07/28 07:19:17;;;;;;;20.48;15.30;;;17.70;99.90;;;;;;5133454;28;20044;-96
2021/07/28 07:21:44;;;;;;;19.85;15.05;;;17.80;99.90;;;;;;5132836;28;20536;-95
2021/07/28 07:24:11;;;;;;;22.98;16.35;;;17.70;99.90;;;;;;5099363;28;20077;-96
2021/07/28 07:26:39;;;;;;;21.20;14.85;;;17.70;99.90;;;;;;5115823;28;20039;-94
2021/07/28 07:29:07;;;;;;;20.90;14.85;;;17.70;99.90;;;;;;5115595;28;20047;-95
2021/07/28 07:31:34;;;;;;;20.48;16.17;;;17.70;99.90;;;;;;5132355;28;20472;-94
2021/07/28 07:34:01;;;;;;;21.83;15.57;;;17.80;99.90;;;;;;5131609;28;20059;-94
2021/07/28 07:36:28;;;;;;;19.88;15.18;;;17.90;99.90;;;;;;5132102;28;20043;-93
2021/07/28 07:38:55;;;;;;;20.50;14.77;;;17.90;99.90;;;;;;5116237;28;20392;-95
2021/07/28 07:41:22;;;;;;;18.42;14.00;;;18.00;99.90;;;;;;5117850;28;20043;-95
2021/07/28 07:43:49;;;;;;;19.27;14.43;;;18.00;99.90;;;;;;5132000;28;20050;-96
2021/07/28 07:46:16;;;;;;;18.52;13.80;;;18.10;99.90;;;;;;5131342;28;20059;-94
2021/07/28 07:48:42;;;;;;;18.75;13.15;;;18.10;99.90;;;;;;5132541;28;20450;-95
2021/07/28 07:51:09;;;;;;;18.48;13.50;;;18.20;99.90;;;;;;5132149;28;20039;-96
2021/07/28 07:53:36;;;;;;;13.77;11.63;;;18.20;99.90;;;;;;5132322;28;20039;-96
2021/07/28 07:56:05;;;;;;;15.55;12.18;;;18.10;99.90;;;;;;5116946;28;20124;-94
2021/07/28 07:58:33;;;;;;;16.33;12.18;;;18.20;99.90;;;;;;5117042;28;20040;-94
2021/07/28 08:01:11;;;;;;;17.40;12.30;;;18.30;99.90;;;;;;5131961;28;20044;-93
2021/07/28 08:03:40;;;;;;;15.68;12.10;;;18.30;99.90;;;;;;5132705;28;20048;-93
2021/07/28 08:06:08;;;;;;;15.27;11.80;;;18.40;99.90;;;;;;5148914;28;20106;-92
2021/07/28 08:08:36;;;;;;;16.13;10.60;;;18.50;99.90;;;;;;5148911;28;20035;-92
2021/07/28 08:11:11;;;;;;;14.48;10.18;;;18.60;99.90;;;;;;5114846;28;20046;-91
2021/07/28 08:13:38;;;;;;;15.65;10.77;;;18.70;99.90;;;;;;5148714;28;20476;-93
2021/07/28 08:16:23;;;;;;;14.35;10.63;;;18.80;99.90;;;;;;5148320;28;20100;-92
2021/07/28 08:18:51;;;;;;;15.27;10.73;;;18.90;99.90;;;;;;5148832;28;20086;-91
2021/07/28 08:21:18;;;;;;;14.75;10.38;;;19.00;99.90;;;;;;5135447;28;20533;-92
2021/07/28 08:23:46;;;;;;;13.63;10.80;;;19.10;99.90;;;;;;5152102;28;20084;-92
2021/07/28 08:26:15;;;;;;;14.23;10.07;;;19.10;99.90;;;;;;5134942;28;20035;-90
2021/07/28 08:28:43;;;;;;;13.52;10.10;;;19.20;99.90;;;;;;5135362;28;20040;-91
2021/07/28 08:31:10;;;;;;;14.50;9.85;;;19.30;99.90;;;;;;5151785;28;20088;-91
2021/07/28 08:33:38;;;;;;;23.98;10.25;;;19.40;99.90;;;;;;5135887;28;20036;-89
2021/07/28 08:36:05;;;;;;;15.25;10.32;;;19.60;99.90;;;;;;5134513;28;20114;-89
2021/07/28 08:38:32;;;;;;;13.65;9.35;;;19.70;99.90;;;;;;5150916;28;20031;-88
2021/07/28 08:41:00;;;;;;;12.68;9.60;;;19.70;99.90;;;;;;5133907;28;20046;-90
2021/07/28 08:43:29;;;;;;;14.07;10.27;;;19.70;99.90;;;;;;5134789;28;20604;-88
2021/07/28 08:45:59;;;;;;;15.15;10.70;;;19.80;99.90;;;;;;5134000;28;20051;-92
2021/07/28 08:48:29;;;;;;;15.27;10.45;;;19.90;99.90;;;;;;5151863;28;20047;-89
2021/07/28 08:51:00;;;;;;;12.05;10.15;;;19.90;99.90;;;;;;5150850;28;20046;-90
2021/07/28 08:53:27;;;;;;;13.20;9.95;;;20.00;99.90;;;;;;5152465;28;20039;-92
2021/07/28 08:55:56;;;;;;;12.20;9.65;;;20.20;99.90;;;;;;5134446;28;20126;-91
2021/07/28 08:58:24;;;;;;;12.30;9.27;;;20.20;99.90;;;;;;5151327;28;20054;-92
2021/07/28 09:00:52;;;;;;;12.80;9.80;;;20.40;99.90;;;;;;5118159;28;20043;-91
2021/07/28 09:03:19;;;;;;;11.10;9.50;;;20.40;99.90;;;;;;5134031;28;20036;-92
2021/07/28 09:05:48;;;;;;;11.55;9.45;;;20.40;99.90;;;;;;5151901;28;20084;-91
2021/07/28 09:08:32;;;;;;;12.65;9.45;;;20.30;99.90;;;;;;5134521;28;20502;-93
2021/07/28 09:11:03;;;;;;;13.20;9.95;;;20.20;99.90;;;;;;5151369;28;20042;-92
2021/07/28 09:13:41;;;;;;;13.95;9.05;;;20.10;99.90;;;;;;5151549;28;20049;-89
2021/07/28 09:16:16;;;;;;;11.65;9.18;;;20.10;99.90;;;;;;5150208;28;20027;-91
2021/07/28 09:18:48;;;;;;;12.88;10.10;;;20.00;99.90;;;;;;5134067;28;20047;-91
2021/07/28 09:21:21;;;;;;;13.68;10.45;;;20.00;99.90;;;;;;5133413;28;20047;-89
2021/07/28 09:23:54;;;;;;;14.40;11.10;;;20.10;99.90;;;;;;5133841;28;20040;-91
2021/07/28 09:29:15;;;;;;;13.02;10.40;;;20.20;99.90;;;;;;5151170;28;20433;-90
2021/07/28 09:31:47;;;;;;;14.13;10.50;;;20.20;99.90;;;;;;5149287;28;20046;-92
2021/07/28 09:34:18;;;;;;;17.20;11.45;;;20.20;99.90;;;;;;5150084;28;20042;-90
2021/07/28 09:36:46;;;;;;;14.30;11.32;;;20.40;99.90;;;;;;5149761;28;20134;-87
2021/07/28 09:39:27;;;;;;;12.93;10.85;;;20.50;99.90;;;;;;5149823;28;20038;-91
2021/07/28 09:41:56;;;;;;;13.98;10.80;;;20.60;99.90;;;;;;5133728;28;20043;-91
2021/07/28 09:44:33;;;;;;;15.38;10.55;;;20.70;99.90;;;;;;5134094;28;20506;-90
2021/07/28 09:47:20;;;;;;;15.18;10.18;;;20.80;99.90;;;;;;5149588;28;20048;-87
2021/07/28 09:49:57;;;;;;;12.85;10.45;;;20.90;99.90;;;;;;5132771;28;20113;-88
2021/07/28 09:52:26;;;;;;;11.02;9.20;;;20.90;99.90;;;;;;5149101;28;20036;-90
2021/07/28 09:54:54;;;;;;;14.52;8.95;;;20.90;99.90;;;;;;5133975;28;20399;-89
2021/07/28 09:57:26;;;;;;;10.45;8.50;;;21.00;99.90;;;;;;5132385;28;20069;-89
2021/07/28 09:59:54;;;;;;;10.20;8.45;;;21.00;99.90;;;;;;5149602;28;20046;-90
2021/07/28 10:02:24;;;;;;;11.25;7.38;;;21.00;99.90;;;;;;5150005;28;20053;-94
2021/07/28 10:04:53;;;;;;;10.05;7.78;;;20.90;99.90;;;;;;5133630;28;20055;-92
2021/07/28 10:07:22;;;;;;;9.57;7.57;;;20.70;99.90;;;;;;5150460;28;20047;-92
2021/07/28 10:09:52;;;;;;;10.95;6.90;;;20.60;99.90;;;;;;5133264;28;20438;-89
2021/07/28 10:12:20;;;;;;;11.73;7.32;;;20.70;99.90;;;;;;5149292;28;20027;-85
2021/07/28 10:14:49;;;;;;;9.73;6.90;;;20.90;99.90;;;;;;5151046;28;20101;-87
2021/07/28 10:17:16;;;;;;;8.80;5.70;;;21.10;99.90;;;;;;5149044;28;20059;-89
2021/07/28 10:19:43;;;;;;;8.50;5.82;;;21.30;99.90;;;;;;5133063;28;20046;-93
2021/07/28 10:22:11;;;;;;;10.48;5.95;;;21.60;99.90;;;;;;5132378;28;20038;-92
2021/07/28 10:24:38;;;;;;;8.57;6.35;;;21.90;99.90;;;;;;5132507;28;20111;-90
2021/07/28 10:27:05;;;;;;;9.85;5.90;;;22.10;99.90;;;;;;5132402;28;20498;-89
2021/07/28 10:29:32;;;;;;;8.15;5.70;;;22.30;99.90;;;;;;5116083;28;20050;-88
2021/07/28 10:31:59;;;;;;;7.57;5.97;;;22.50;99.90;;;;;;5115617;28;20032;-87
2021/07/28 10:34:32;;;;;;;11.50;6.28;;;22.60;99.90;;;;;;5114600;28;20097;-87
2021/07/28 10:37:08;;;;;;;9.77;6.25;;;22.60;99.90;;;;;;5150408;28;20052;-89
2021/07/28 10:39:42;;;;;;;7.95;5.55;;;22.70;99.90;;;;;;5132529;28;20046;-93
2021/07/28 10:42:30;;;;;;;9.25;5.90;;;22.60;99.90;;;;;;5148596;28;20119;-92
2021/07/28 10:45:04;;;;;;;12.20;5.70;;;22.70;99.90;;;;;;5148932;28;20032;-90
2021/07/28 10:47:42;;;;;;;9.40;5.07;;;22.80;99.90;;;;;;5150154;28;20066;-90
2021/07/28 10:50:30;;;;;;;7.40;5.72;;;22.90;99.90;;;;;;5148937;28;20400;-90
2021/07/28 10:52:58;;;;;;;8.35;5.07;;;23.00;99.90;;;;;;5149202;28;20035;-85
2021/07/28 10:55:27;;;;;;;9.02;5.60;;;23.00;99.90;;;;;;5149461;28;20507;-90
2021/07/28 10:57:54;;;;;;;7.32;5.43;;;23.00;99.90;;;;;;5132159;28;20043;-86
2021/07/28 11:00:39;;;;;;;8.90;5.03;;;22.90;99.90;;;;;;5148798;28;20369;-90
2021/07/28 11:03:09;;;;;;;9.35;5.15;;;22.90;99.90;;;;;;5132381;28;20412;-92
2021/07/28 11:05:50;;;;;;;8.15;5.80;;;22.90;99.90;;;;;;5149887;28;20028;-91
2021/07/28 11:08:20;;;;;;;8.57;5.75;;;22.90;99.90;;;;;;5132227;28;20078;-90
2021/07/28 11:10:58;;;;;;;7.50;5.53;;;23.00;99.90;;;;;;5150073;28;20031;-88
2021/07/28 11:13:35;;;;;;;8.45;5.53;;;23.10;99.90;;;;;;5148574;28;20040;-89
2021/07/28 11:16:07;;;;;;;8.13;5.05;;;23.20;99.90;;;;;;5148421;28;20067;-86
2021/07/28 11:18:38;;;;;;;6.18;5.20;;;23.20;99.90;;;;;;5147759;28;20036;-88
2021/07/28 11:21:22;;;;;;;9.02;5.57;;;23.00;99.90;;;;;;5148793;28;20118;-87
2021/07/28 11:24:02;;;;;;;6.15;5.00;;;22.70;99.90;;;;;;5148908;28;20035;-87
2021/07/28 11:26:45;;;;;;;6.43;5.18;;;22.60;99.90;;;;;;5150024;28;20043;-88
2021/07/28 11:29:16;;;;;;;11.57;5.60;;;22.50;99.90;;;;;;5149413;28;20039;-89
2021/07/28 11:31:45;;;;;;;6.85;5.00;;;22.30;99.90;;;;;;5150112;28;20028;-89
2021/07/28 11:34:13;;;;;;;7.95;5.07;;;22.10;99.90;;;;;;5148811;28;20035;-88
2021/07/28 11:36:43;;;;;;;8.20;5.38;;;22.00;99.90;;;;;;5149011;28;20493;-86
2021/07/28 11:39:19;;;;;;;7.30;5.57;;;21.90;99.90;;;;;;5148048;28;20083;-87
2021/07/28 11:41:58;;;;;;;9.07;5.45;;;21.80;99.90;;;;;;5131428;28;20069;-89
2021/07/28 11:44:25;;;;;;;5.93;4.68;;;21.60;99.90;;;;;;5148126;28;20032;-89
2021/07/28 11:46:54;;;;;;;7.05;4.90;;;21.40;99.90;;;;;;5114299;28;20483;-88
2021/07/28 11:49:26;;;;;;;7.68;4.30;;;21.20;99.90;;;;;;5147338;28;20044;-88
2021/07/28 11:51:58;;;;;;;5.40;4.05;;;21.10;99.90;;;;;;5114224;28;20092;-88
2021/07/28 11:54:25;;;;;;;7.22;4.38;;;20.90;99.90;;;;;;5148720;28;20036;-88
2021/07/28 11:56:53;;;;;;;6.80;4.30;;;20.90;99.90;;;;;;5118084;28;20490;-88
2021/07/28 11:59:26;;;;;;;8.02;4.30;;;20.90;99.90;;;;;;5134807;28;20088;-88
2021/07/28 12:01:55;;;;;;;7.57;4.45;;;21.00;99.90;;;;;;5152051;28;20039;-88
2021/07/28 12:04:26;;;;;;;8.48;4.10;;;20.90;99.90;;;;;;5135118;28;20118;-87
2021/07/28 12:06:54;;;;;;;6.35;4.65;;;20.90;99.90;;;;;;5152175;28;20031;-86
2021/07/28 12:09:28;;;;;;;7.60;4.38;;;20.90;99.90;;;;;;5134390;28;20426;-86
2021/07/28 12:12:04;;;;;;;7.57;4.27;;;20.90;99.90;;;;;;5151895;28;20039;-84
2021/07/28 12:14:35;;;;;;;9.27;4.53;;;20.90;99.90;;;;;;5134383;28;20031;-86
2021/07/28 12:17:06;;;;;;;5.75;4.28;;;20.90;99.90;;;;;;5117375;28;20403;-87
2021/07/28 12:19:40;;;;;;;8.20;4.13;;;20.90;99.90;;;;;;5151720;28;20115;-86
2021/07/28 12:22:12;;;;;;;7.38;3.75;;;20.90;99.90;;;;;;5135819;28;20411;-86
2021/07/28 12:24:47;;;;;;;6.45;3.60;;;21.00;99.90;;;;;;5152119;28;20465;-87
2021/07/28 12:27:29;;;;;;;9.73;4.03;;;21.30;99.90;;;;;;5151346;28;20484;-87
2021/07/28 12:30:15;;;;;;;6.75;3.70;;;21.50;99.90;;;;;;5151886;28;20040;-89
2021/07/28 12:32:44;;;;;;;6.95;3.78;;;21.60;99.90;;;;;;5150742;28;20446;-86
2021/07/28 12:35:20;;;;;;;5.97;3.20;;;21.70;99.90;;;;;;5153093;28;20050;-88
2021/07/28 12:38:15;;;;;;;5.93;3.30;;;21.60;99.90;;;;;;5151149;28;20415;-86
2021/07/28 12:40:49;;;;;;;7.72;3.35;;;21.50;99.90;;;;;;5134330;28;20587;-88
2021/07/28 12:43:16;;;;;;;9.15;3.58;;;21.50;99.90;;;;;;5150958;28;20032;-88
2021/07/28 12:45:45;;;;;;;6.25;3.67;;;21.40;99.90;;;;;;5151010;28;20042;-89
2021/07/28 12:48:11;;;;;;;6.32;3.22;;;21.40;99.90;;;;;;5135227;28;20045;-89